Time;durP1;ratioP1;P1;durP2;ratioP2;P2;SDS_P1;SDS_P2;PMS_P1;PMS_P2;Temp;Humidity;BMP_temperature;BMP_pressure;BME280_temperature;BME280_humidity;BME280_pressure;Samples;Min_cycle;Max_cycle;Signal;HPM_P1;HPM_P2
2021/03/02 00:00:31;;;;;;;11.98;4.43;;;24.80;64.00;;;;;;5070534;28;20075;-71
2021/03/02 00:02:59;;;;;;;10.38;3.70;;;24.80;64.10;;;;;;5067561;28;20399;-71
2021/03/02 00:05:26;;;;;;;11.88;4.20;;;24.80;64.20;;;;;;5070284;28;20054;-71
2021/03/02 00:07:52;;;;;;;17.73;5.00;;;24.90;64.40;;;;;;5070358;28;20159;-71
2021/03/02 00:10:19;;;;;;;19.02;4.53;;;24.80;64.30;;;;;;5069977;28;20031;-71
2021/03/02 00:12:45;;;;;;;13.68;4.35;;;24.80;64.30;;;;;;5069498;28;20023;-72
2021/03/02 00:15:13;;;;;;;12.95;3.95;;;24.80;64.30;;;;;;5070678;28;20070;-71
2021/03/02 00:17:48;;;;;;;11.45;4.47;;;24.80;64.40;;;;;;5069715;28;20027;-71
2021/03/02 00:20:19;;;;;;;11.70;4.40;;;24.80;64.30;;;;;;5065922;28;20044;-71
2021/03/02 00:23:10;;;;;;;13.90;4.15;;;24.80;64.20;;;;;;5049072;28;20626;-71
2021/03/02 00:25:50;;;;;;;14.70;4.55;;;24.80;64.30;;;;;;5068998;28;20411;-71
2021/03/02 00:28:18;;;;;;;12.68;4.40;;;24.80;64.20;;;;;;5068379;28;20028;-72
2021/03/02 00:30:50;;;;;;;14.45;4.05;;;24.80;64.30;;;;;;5071929;28;20016;-71
2021/03/02 00:33:18;;;;;;;14.45;5.57;;;24.80;64.30;;;;;;5070473;28;20103;-72
2021/03/02 00:35:45;;;;;;;11.32;4.00;;;24.80;64.20;;;;;;5071321;28;20033;-71
2021/03/02 00:38:11;;;;;;;12.82;4.05;;;24.80;64.10;;;;;;5068352;28;20043;-72
2021/03/02 00:40:38;;;;;;;8.68;3.92;;;24.80;64.10;;;;;;5069867;28;20029;-72
2021/03/02 00:43:05;;;;;;;10.88;4.53;;;24.80;64.20;;;;;;5066288;28;20101;-72
2021/03/02 00:45:32;;;;;;;9.65;4.28;;;24.80;64.20;;;;;;5067995;28;20021;-71
2021/03/02 00:47:59;;;;;;;11.55;3.97;;;24.80;64.20;;;;;;5069220;28;20062;-72
2021/03/02 00:50:27;;;;;;;11.13;3.80;;;24.80;64.30;;;;;;5069366;28;20063;-72
2021/03/02 00:52:54;;;;;;;13.93;3.83;;;24.80;64.20;;;;;;5065519;28;20517;-72
2021/03/02 00:55:21;;;;;;;10.50;4.13;;;24.70;64.00;;;;;;5067737;28;20017;-72
2021/03/02 00:57:48;;;;;;;22.65;8.60;;;24.70;63.80;;;;;;5070232;28;20519;-72
2021/03/02 01:00:15;;;;;;;10.50;3.58;;;24.70;63.70;;;;;;5069255;28;20042;-71
2021/03/02 01:02:42;;;;;;;7.38;3.38;;;24.70;63.60;;;;;;5069351;28;20036;-72
2021/03/02 01:05:10;;;;;;;12.93;4.60;;;24.70;63.50;;;;;;5047962;28;20024;-72
2021/03/02 01:07:37;;;;;;;7.70;3.33;;;24.70;63.60;;;;;;5071313;28;20021;-71
2021/03/02 01:10:06;;;;;;;11.40;4.88;;;24.70;63.50;;;;;;5068842;28;20028;-71
2021/03/02 01:12:33;;;;;;;14.90;4.10;;;24.70;63.60;;;;;;5067828;28;20387;-71
2021/03/02 01:15:04;;;;;;;5.32;2.75;;;24.70;63.40;;;;;;5066347;28;20351;-71
2021/03/02 01:17:31;;;;;;;8.88;5.40;;;24.70;63.40;;;;;;5065311;28;20103;-71
2021/03/02 01:19:57;;;;;;;9.02;3.15;;;24.70;63.40;;;;;;5068431;28;20036;-72
2021/03/02 01:22:24;;;;;;;9.98;4.07;;;24.70;64.10;;;;;;5068657;28;20017;-71
2021/03/02 01:24:50;;;;;;;8.40;3.60;;;24.70;63.40;;;;;;5070678;28;20071;-71
2021/03/02 01:27:17;;;;;;;6.55;3.47;;;24.60;63.30;;;;;;5068568;28;20082;-71
2021/03/02 01:29:44;;;;;;;10.23;3.97;;;24.60;63.30;;;;;;5064107;28;20035;-71
2021/03/02 01:32:10;;;;;;;9.05;3.22;;;24.60;63.30;;;;;;5067811;28;20853;-71
2021/03/02 01:34:37;;;;;;;8.07;3.45;;;24.60;63.30;;;;;;5068409;28;20025;-71
2021/03/02 01:37:03;;;;;;;11.13;3.22;;;24.60;63.30;;;;;;5069655;28;20028;-71
2021/03/02 01:39:31;;;;;;;4.35;2.45;;;24.60;63.40;;;;;;5066453;28;20032;-71
2021/03/02 01:41:59;;;;;;;6.32;3.25;;;24.60;63.40;;;;;;5068774;28;20082;-72
2021/03/02 01:44:28;;;;;;;11.45;4.70;;;24.60;63.40;;;;;;5069020;28;20090;-71
2021/03/02 01:46:55;;;;;;;7.80;3.13;;;24.60;63.40;;;;;;5063277;28;20073;-71
2021/03/02 01:49:22;;;;;;;12.75;3.78;;;24.60;63.50;;;;;;5067503;28;20029;-72
2021/03/02 01:51:49;;;;;;;5.53;2.70;;;24.50;63.50;;;;;;5066745;28;20024;-71
2021/03/02 01:54:16;;;;;;;8.77;3.25;;;24.60;63.60;;;;;;5069054;28;20082;-71
2021/03/02 01:56:45;;;;;;;12.55;3.03;;;24.60;63.60;;;;;;5065387;28;20103;-71
2021/03/02 01:59:12;;;;;;;9.68;2.83;;;24.50;63.50;;;;;;5065147;28;20480;-71
2021/03/02 02:01:40;;;;;;;4.10;2.45;;;24.60;63.60;;;;;;5069829;28;20565;-72
2021/03/02 02:04:18;;;;;;;5.38;2.78;;;24.50;63.40;;;;;;5067453;28;20027;-71
2021/03/02 02:06:56;;;;;;;5.78;2.60;;;24.50;63.40;;;;;;5070750;28;20484;-71
2021/03/02 02:09:23;;;;;;;5.65;2.55;;;24.50;63.40;;;;;;5066225;28;20036;-72
2021/03/02 02:12:12;;;;;;;8.25;2.55;;;24.50;63.40;;;;;;5071312;28;20833;-71
2021/03/02 02:14:51;;;;;;;4.45;2.67;;;24.50;63.30;;;;;;5064942;28;20028;-71
2021/03/02 02:17:36;;;;;;;8.88;2.60;;;24.50;63.30;;;;;;5066577;28;20012;-72
2021/03/02 02:20:06;;;;;;;9.63;4.25;;;24.40;63.30;;;;;;5066977;28;20044;-71
2021/03/02 02:22:57;;;;;;;5.78;2.42;;;24.40;63.50;;;;;;5065327;28;20032;-71
2021/03/02 02:25:26;;;;;;;9.07;3.15;;;24.40;63.40;;;;;;5067600;28;20903;-71
2021/03/02 02:27:58;;;;;;;7.93;3.40;;;24.40;63.40;;;;;;5065652;28;20025;-72
2021/03/02 02:30:26;;;;;;;6.43;2.80;;;24.40;63.30;;;;;;5065644;28;20503;-71
2021/03/02 02:32:55;;;;;;;3.88;2.15;;;24.40;63.40;;;;;;5068565;28;20008;-71
2021/03/02 02:35:23;;;;;;;8.13;3.22;;;24.40;63.40;;;;;;5049149;28;20034;-71
2021/03/02 02:37:51;;;;;;;5.55;2.60;;;24.40;63.40;;;;;;5065370;28;20035;-71
2021/03/02 02:40:20;;;;;;;8.43;4.28;;;24.40;63.50;;;;;;5066606;28;20492;-71
2021/03/02 02:42:49;;;;;;;7.00;2.42;;;24.40;63.40;;;;;;5067070;28;20012;-71
2021/03/02 02:45:17;;;;;;;5.50;3.03;;;24.40;63.30;;;;;;5067942;28;20100;-71
2021/03/02 02:47:46;;;;;;;6.57;3.28;;;24.40;63.40;;;;;;5066176;28;20017;-71
2021/03/02 02:50:14;;;;;;;10.02;3.00;;;24.30;63.30;;;;;;5065813;28;20029;-71
2021/03/02 02:52:42;;;;;;;6.07;3.03;;;24.30;63.30;;;;;;5048673;28;20089;-71
2021/03/02 02:55:09;;;;;;;10.60;3.17;;;24.30;64.10;;;;;;5066911;28;20101;-71
2021/03/02 02:57:41;;;;;;;3.88;2.50;;;24.30;63.50;;;;;;5068909;28;20070;-71
2021/03/02 03:00:09;;;;;;;6.78;3.60;;;24.30;63.50;;;;;;5067578;28;20384;-71
2021/03/02 03:02:40;;;;;;;7.15;3.33;;;24.30;63.50;;;;;;5069137;28;20380;-70
2021/03/02 03:05:27;;;;;;;8.85;3.90;;;24.30;63.70;;;;;;5048604;28;20029;-72
2021/03/02 03:08:19;;;;;;;7.82;4.13;;;24.30;63.80;;;;;;5064510;28;20068;-71
2021/03/02 03:10:49;;;;;;;6.40;3.55;;;24.30;63.90;;;;;;5069791;28;20024;-71
2021/03/02 03:13:22;;;;;;;7.05;3.45;;;24.30;63.80;;;;;;5065410;28;20057;-72
2021/03/02 03:16:01;;;;;;;7.88;3.38;;;24.20;63.70;;;;;;5069145;28;20024;-71
2021/03/02 03:18:32;;;;;;;4.43;2.60;;;24.30;63.70;;;;;;5069809;28;20039;-72
2021/03/02 03:21:00;;;;;;;7.40;3.30;;;24.20;63.60;;;;;;5070372;28;20066;-72
2021/03/02 03:23:28;;;;;;;9.20;3.33;;;24.20;63.70;;;;;;5070655;28;20020;-72
2021/03/02 03:25:55;;;;;;;5.63;3.60;;;24.20;63.80;;;;;;5068827;28;20028;-70
2021/03/02 03:28:24;;;;;;;6.00;3.33;;;24.20;63.90;;;;;;5072026;28;20029;-70
2021/03/02 03:30:52;;;;;;;11.48;3.35;;;24.20;63.90;;;;;;5064971;28;20020;-70
2021/03/02 03:33:21;;;;;;;8.25;2.95;;;24.20;63.80;;;;;;5069673;28;20028;-71
2021/03/02 03:35:47;;;;;;;4.18;2.63;;;24.20;63.70;;;;;;5071946;28;20019;-71
2021/03/02 03:38:14;;;;;;;8.50;2.40;;;24.20;63.70;;;;;;5070269;28;20039;-71
2021/03/02 03:40:41;;;;;;;7.35;3.13;;;24.20;63.80;;;;;;5071426;28;20029;-71
2021/03/02 03:43:07;;;;;;;8.93;2.70;;;24.20;63.80;;;;;;5067278;28;20025;-71
2021/03/02 03:45:34;;;;;;;5.70;2.53;;;24.20;63.80;;;;;;5072162;28;20016;-70
2021/03/02 03:48:01;;;;;;;8.25;2.85;;;24.20;64.00;;;;;;5068805;28;20470;-71
2021/03/02 03:50:30;;;;;;;4.28;2.88;;;24.20;64.20;;;;;;5054498;28;20020;-73
2021/03/02 03:53:01;;;;;;;2.97;2.22;;;24.20;64.20;;;;;;5072057;28;20376;-70
2021/03/02 03:55:40;;;;;;;4.18;2.30;;;24.10;64.10;;;;;;5071089;28;20021;-71
2021/03/02 03:58:10;;;;;;;9.15;2.05;;;24.10;64.00;;;;;;5069791;28;20107;-74
2021/03/02 04:00:38;;;;;;;8.10;4.18;;;24.10;64.10;;;;;;5069362;28;20032;-74
2021/03/02 04:03:06;;;;;;;5.13;2.33;;;24.10;64.10;;;;;;5068747;28;20595;-72
2021/03/02 04:05:35;;;;;;;5.25;2.08;;;24.10;63.90;;;;;;5067786;28;20360;-69
2021/03/02 04:08:02;;;;;;;5.95;3.45;;;24.10;63.80;;;;;;5072338;28;20024;-70
2021/03/02 04:10:29;;;;;;;8.63;5.47;;;24.10;63.60;;;;;;5070467;28;20027;-79
2021/03/02 04:12:56;;;;;;;11.80;4.80;;;24.10;63.60;;;;;;5069718;28;20051;-73
2021/03/02 04:15:23;;;;;;;9.70;4.50;;;24.10;63.80;;;;;;5070055;28;20090;-74
2021/03/02 04:17:51;;;;;;;7.53;3.75;;;24.10;63.80;;;;;;5071860;28;20013;-78
2021/03/02 04:20:18;;;;;;;5.13;2.97;;;24.00;63.70;;;;;;5069789;28;20058;-72
2021/03/02 04:22:45;;;;;;;8.15;4.60;;;24.10;63.70;;;;;;5069999;28;20487;-74
2021/03/02 04:25:13;;;;;;;8.48;3.08;;;24.10;63.80;;;;;;5048747;28;20051;-72
2021/03/02 04:27:40;;;;;;;8.50;4.05;;;24.00;63.90;;;;;;5066731;28;20013;-73
2021/03/02 04:30:08;;;;;;;8.57;3.67;;;24.00;64.00;;;;;;5069811;28;20020;-72
2021/03/02 04:32:36;;;;;;;7.15;3.75;;;24.10;63.80;;;;;;5072253;28;20035;-73
2021/03/02 04:35:02;;;;;;;5.88;3.05;;;24.00;63.70;;;;;;5069919;28;20033;-73
2021/03/02 04:37:29;;;;;;;6.28;2.70;;;24.00;63.80;;;;;;5071102;28;20149;-71
2021/03/02 04:39:55;;;;;;;7.00;3.17;;;24.00;63.90;;;;;;5069191;28;20028;-71
2021/03/02 04:42:22;;;;;;;5.15;2.60;;;24.00;63.90;;;;;;5069824;28;20506;-70
2021/03/02 04:44:49;;;;;;;5.82;2.63;;;24.00;63.80;;;;;;5069787;28;20019;-70
2021/03/02 04:47:15;;;;;;;7.13;2.67;;;24.00;63.80;;;;;;5069515;28;20103;-72
2021/03/02 04:49:42;;;;;;;6.72;2.40;;;24.00;63.60;;;;;;5069919;28;20118;-70
2021/03/02 04:52:09;;;;;;;6.32;2.45;;;24.00;63.70;;;;;;5065041;28;20020;-71
2021/03/02 04:54:35;;;;;;;5.38;2.92;;;24.00;63.80;;;;;;5070727;28;20021;-70
2021/03/02 04:57:02;;;;;;;5.72;2.30;;;24.00;64.00;;;;;;5069979;28;20035;-70
2021/03/02 04:59:32;;;;;;;5.93;1.90;;;24.00;64.10;;;;;;5069640;28;20040;-70
2021/03/02 05:01:59;;;;;;;8.70;3.78;;;24.00;64.10;;;;;;5050565;28;20036;-70
2021/03/02 05:04:26;;;;;;;7.25;2.63;;;24.00;64.20;;;;;;5050771;28;20040;-70
2021/03/02 05:06:52;;;;;;;7.70;2.60;;;24.00;64.30;;;;;;5068735;28;20032;-70
2021/03/02 05:09:20;;;;;;;8.02;2.72;;;24.00;64.30;;;;;;5066922;28;20013;-70
2021/03/02 05:11:47;;;;;;;7.90;2.35;;;24.00;64.20;;;;;;5067345;28;20562;-70
2021/03/02 05:14:13;;;;;;;7.07;2.92;;;24.00;64.20;;;;;;5065998;28;20515;-71
2021/03/02 05:16:40;;;;;;;6.35;2.00;;;24.00;64.10;;;;;;5068976;28;20024;-70
2021/03/02 05:19:07;;;;;;;7.90;2.42;;;24.00;64.10;;;;;;5065318;28;20047;-71
2021/03/02 05:21:34;;;;;;;8.52;2.80;;;24.00;64.10;;;;;;5066895;28;20035;-71
2021/03/02 05:24:01;;;;;;;6.50;2.20;;;24.00;64.10;;;;;;5045798;28;20032;-69
2021/03/02 05:26:27;;;;;;;4.72;2.42;;;24.00;64.10;;;;;;5067479;28;20027;-70
2021/03/02 05:28:57;;;;;;;8.07;2.28;;;24.00;64.10;;;;;;5067065;28;20612;-70
2021/03/02 05:31:24;;;;;;;6.38;2.05;;;24.00;64.10;;;;;;5064837;28;20024;-70
2021/03/02 05:33:51;;;;;;;6.60;2.75;;;24.00;64.00;;;;;;5065369;28;20012;-70
2021/03/02 05:36:20;;;;;;;5.15;2.33;;;24.00;64.10;;;;;;5063318;28;20111;-70
2021/03/02 05:39:06;;;;;;;5.88;2.30;;;23.90;64.10;;;;;;5069415;28;20036;-71
2021/03/02 05:41:34;;;;;;;6.78;3.28;;;23.90;64.10;;;;;;5069416;28;20020;-70
2021/03/02 05:44:02;;;;;;;10.30;2.30;;;23.90;64.20;;;;;;5067070;28;20020;-70
2021/03/02 05:46:28;;;;;;;15.88;2.25;;;23.90;64.20;;;;;;5066621;28;20013;-70
2021/03/02 05:48:55;;;;;;;11.00;2.88;;;23.90;64.20;;;;;;5066078;28;20103;-70
2021/03/02 05:51:22;;;;;;;4.90;2.38;;;23.90;64.30;;;;;;5068282;28;20031;-70
2021/03/02 05:53:49;;;;;;;4.15;2.03;;;23.90;64.20;;;;;;5067841;28;20170;-70
2021/03/02 05:56:16;;;;;;;5.00;2.17;;;23.90;64.20;;;;;;5067769;28;20060;-70
2021/03/02 05:58:42;;;;;;;7.38;2.25;;;23.90;64.20;;;;;;5066803;28;20396;-70
2021/03/02 06:01:09;;;;;;;6.07;2.13;;;23.90;64.20;;;;;;5070148;28;20376;-70
2021/03/02 06:03:37;;;;;;;7.97;2.85;;;23.90;64.20;;;;;;5067209;28;20032;-70
2021/03/02 06:06:06;;;;;;;6.63;1.95;;;23.80;64.20;;;;;;5067357;28;20028;-69
2021/03/02 06:08:34;;;;;;;6.32;2.10;;;23.90;64.40;;;;;;5068137;28;20057;-70
2021/03/02 06:11:30;;;;;;;6.38;2.10;;;23.80;64.40;;;;;;5067054;28;20016;-70
2021/03/02 06:14:22;;;;;;;5.18;2.83;;;23.80;64.50;;;;;;5061743;28;20356;-70
2021/03/02 06:16:51;;;;;;;12.13;2.53;;;23.90;64.60;;;;;;5070115;28;20027;-70
2021/03/02 06:19:18;;;;;;;5.10;2.53;;;23.90;64.60;;;;;;5065683;28;20136;-70
2021/03/02 06:21:45;;;;;;;8.23;2.50;;;23.90;64.60;;;;;;5067280;28;20115;-70
2021/03/02 06:24:12;;;;;;;6.25;2.03;;;23.90;64.60;;;;;;5064657;28;20013;-70
2021/03/02 06:26:38;;;;;;;7.88;3.00;;;23.90;64.60;;;;;;5070635;28;20107;-70
2021/03/02 06:29:14;;;;;;;9.00;3.20;;;23.90;65.30;;;;;;5068855;28;20021;-70
2021/03/02 06:31:40;;;;;;;4.32;2.10;;;23.90;64.60;;;;;;5064717;28;20461;-70
2021/03/02 06:34:14;;;;;;;3.30;1.75;;;24.00;64.80;;;;;;5064493;28;20046;-70
2021/03/02 06:36:44;;;;;;;11.38;3.95;;;24.00;64.80;;;;;;5066663;28;20028;-70
2021/03/02 06:39:34;;;;;;;9.45;2.55;;;24.10;64.90;;;;;;5066947;28;20028;-70
2021/03/02 06:42:20;;;;;;;6.88;2.78;;;24.10;64.80;;;;;;5066592;28;20020;-70
2021/03/02 06:44:50;;;;;;;3.00;2.22;;;24.10;64.80;;;;;;5066240;28;20047;-69
2021/03/02 06:47:33;;;;;;;4.97;1.77;;;24.10;64.70;;;;;;5069437;28;20024;-69
2021/03/02 06:50:03;;;;;;;6.20;2.00;;;24.10;64.50;;;;;;5067439;28;20487;-69
2021/03/02 06:52:38;;;;;;;6.25;2.58;;;24.10;64.40;;;;;;5071625;28;20024;-70
2021/03/02 06:55:22;;;;;;;6.40;2.45;;;24.10;63.90;;;;;;5067169;28;20127;-69
2021/03/02 06:57:50;;;;;;;6.45;2.25;;;24.10;63.30;;;;;;5070085;28;20024;-70
2021/03/02 07:00:30;;;;;;;7.10;2.45;;;24.10;63.00;;;;;;5072390;28;20922;-70
2021/03/02 07:02:57;;;;;;;3.97;1.95;;;24.10;62.80;;;;;;5070942;28;20048;-70
2021/03/02 07:05:24;;;;;;;5.95;2.75;;;24.10;62.70;;;;;;5069488;28;20035;-69
2021/03/02 07:07:56;;;;;;;3.83;1.88;;;24.10;62.50;;;;;;5070039;28;20396;-70
2021/03/02 07:10:24;;;;;;;5.25;2.42;;;24.10;62.50;;;;;;5073225;28;20020;-69
2021/03/02 07:12:55;;;;;;;7.00;2.13;;;24.10;62.40;;;;;;5070037;28;20056;-69
2021/03/02 07:15:24;;;;;;;7.82;2.00;;;24.20;62.50;;;;;;5067707;28;20649;-70
2021/03/02 07:17:54;;;;;;;5.30;1.90;;;24.20;62.40;;;;;;5068745;28;20028;-69
2021/03/02 07:20:23;;;;;;;10.25;3.13;;;24.20;62.40;;;;;;5069869;28;20055;-70
2021/03/02 07:22:53;;;;;;;6.63;2.88;;;24.20;62.40;;;;;;5073310;28;20021;-69
2021/03/02 07:25:22;;;;;;;9.82;2.22;;;24.20;62.50;;;;;;5051372;28;20032;-70
2021/03/02 07:27:59;;;;;;;5.10;2.20;;;24.30;62.50;;;;;;5069875;28;20360;-70
2021/03/02 07:30:25;;;;;;;5.03;2.35;;;24.30;62.30;;;;;;5065126;28;20603;-70
2021/03/02 07:32:52;;;;;;;4.85;1.75;;;24.30;62.10;;;;;;5071236;28;20479;-70
2021/03/02 07:35:21;;;;;;;2.78;1.75;;;24.30;62.00;;;;;;5070547;28;20028;-70
2021/03/02 07:37:49;;;;;;;5.78;2.08;;;24.30;62.00;;;;;;5066696;28;20450;-71
2021/03/02 07:40:20;;;;;;;5.07;1.92;;;24.40;62.00;;;;;;5068965;28;20033;-70
2021/03/02 07:42:46;;;;;;;2.45;1.40;;;24.40;61.90;;;;;;5067209;28;20072;-69
2021/03/02 07:45:15;;;;;;;4.65;1.63;;;24.40;61.80;;;;;;5067011;28;20359;-69
2021/03/02 07:47:51;;;;;;;2.90;1.75;;;24.40;62.30;;;;;;5070341;28;20029;-70
2021/03/02 07:50:31;;;;;;;4.38;2.70;;;24.40;61.60;;;;;;5066879;28;20109;-70
2021/03/02 07:53:16;;;;;;;6.95;2.20;;;24.40;61.60;;;;;;5067469;28;20507;-70
2021/03/02 07:55:44;;;;;;;3.22;1.50;;;24.40;61.50;;;;;;5067304;28;20082;-70
2021/03/02 07:58:28;;;;;;;2.28;1.30;;;24.40;61.40;;;;;;5069351;28;20420;-70
2021/03/02 08:01:18;;;;;;;1.95;1.45;;;24.50;61.40;;;;;;5069725;28;20032;-70
2021/03/02 08:03:46;;;;;;;4.10;1.80;;;24.50;61.30;;;;;;5068172;28;20032;-70
2021/03/02 08:06:23;;;;;;;4.43;1.77;;;24.50;61.20;;;;;;5066893;28;20031;-70
2021/03/02 08:08:50;;;;;;;2.88;1.40;;;24.60;61.20;;;;;;5069076;28;20025;-69
2021/03/02 08:11:31;;;;;;;2.92;1.70;;;24.60;61.00;;;;;;5069070;28;20013;-70
2021/03/02 08:14:17;;;;;;;2.03;1.52;;;24.60;60.70;;;;;;5066784;28;20074;-70
2021/03/02 08:16:55;;;;;;;5.57;1.27;;;24.60;60.40;;;;;;5068666;28;20101;-69
2021/03/02 08:19:43;;;;;;;2.95;1.33;;;24.70;60.20;;;;;;5067611;28;20127;-69
2021/03/02 08:22:19;;;;;;;1.95;1.15;;;24.60;59.80;;;;;;5041784;28;20116;-70
2021/03/02 08:24:54;;;;;;;2.90;1.45;;;24.60;59.70;;;;;;5066192;28;20058;-70
2021/03/02 08:27:45;;;;;;;;;;;24.70;59.70;;;;;;5069422;28;20407;-70
2021/03/02 08:30:14;;;;;;;2.97;1.10;;;24.70;59.50;;;;;;5065955;28;19915;-70
2021/03/02 08:32:42;;;;;;;2.55;1.40;;;24.70;59.40;;;;;;5067532;28;20016;-70
2021/03/02 08:35:17;;;;;;;1.30;1.20;;;24.70;59.30;;;;;;5068067;28;20105;-69
2021/03/02 08:37:55;;;;;;;2.45;1.10;;;24.70;59.30;;;;;;5066877;28;20017;-69
2021/03/02 08:40:31;;;;;;;3.97;1.73;;;24.70;59.30;;;;;;5068613;28;20029;-69
2021/03/02 08:43:07;;;;;;;1.52;0.90;;;24.80;59.30;;;;;;5068986;28;20024;-70
2021/03/02 08:45:55;;;;;;;1.92;0.93;;;24.80;59.30;;;;;;5066113;28;20441;-70
2021/03/02 08:48:26;;;;;;;3.65;1.80;;;24.90;59.10;;;;;;5069255;28;20629;-70
2021/03/02 08:50:56;;;;;;;3.38;1.10;;;24.90;59.00;;;;;;5066296;28;20047;-69
2021/03/02 08:53:26;;;;;;;2.05;1.17;;;25.00;58.90;;;;;;5066247;28;20020;-70
2021/03/02 08:55:52;;;;;;;4.97;1.30;;;25.00;58.70;;;;;;5065231;28;20055;-70
2021/03/02 08:58:50;;;;;;;1.58;0.90;;;25.00;58.40;;;;;;5048514;28;20017;-70
2021/03/02 09:01:27;;;;;;;1.10;0.85;;;25.10;58.10;;;;;;5056386;28;20068;-70
2021/03/02 09:04:05;;;;;;;1.08;0.80;;;25.10;57.90;;;;;;5065904;28;20029;-70
2021/03/02 09:06:31;;;;;;;2.28;1.20;;;25.10;57.80;;;;;;5068477;28;20063;-70
2021/03/02 09:09:00;;;;;;;2.17;0.70;;;25.10;57.70;;;;;;5067422;28;20016;-70
2021/03/02 09:11:34;;;;;;;2.17;0.90;;;25.10;57.60;;;;;;5067564;28;20063;-70
2021/03/02 09:14:10;;;;;;;1.30;0.70;;;25.20;57.60;;;;;;5064219;28;20472;-70
2021/03/02 09:16:43;;;;;;;3.58;1.35;;;25.20;57.60;;;;;;5064894;28;20480;-70
2021/03/02 09:19:29;;;;;;;2.58;1.45;;;25.30;57.50;;;;;;5066089;28;20044;-70
2021/03/02 09:22:16;;;;;;;1.35;0.95;;;25.30;57.50;;;;;;5067073;28;20016;-70
2021/03/02 09:24:46;;;;;;;3.40;1.13;;;25.40;57.50;;;;;;5066911;28;20032;-70
2021/03/02 09:27:15;;;;;;;1.50;0.93;;;25.40;57.50;;;;;;5064772;28;20464;-70
2021/03/02 09:29:47;;;;;;;1.65;1.10;;;25.50;57.30;;;;;;5067647;28;20488;-70
2021/03/02 09:32:17;;;;;;;1.35;1.17;;;25.50;57.30;;;;;;5065760;28;20019;-70
2021/03/02 09:34:46;;;;;;;3.10;1.35;;;25.60;57.30;;;;;;5068054;28;20372;-70
2021/03/02 09:37:20;;;;;;;3.63;1.30;;;25.60;57.40;;;;;;5064418;28;20028;-71
2021/03/02 09:40:10;;;;;;;2.63;1.73;;;25.60;57.30;;;;;;5066117;28;20036;-70
2021/03/02 09:42:41;;;;;;;7.28;1.77;;;25.70;57.40;;;;;;5065566;28;20017;-70
2021/03/02 09:45:16;;;;;;;2.35;1.10;;;25.70;57.30;;;;;;5067410;28;20105;-70
2021/03/02 09:47:44;;;;;;;3.47;1.38;;;25.80;57.50;;;;;;5068190;28;20078;-70
2021/03/02 09:50:13;;;;;;;10.02;2.25;;;25.80;57.30;;;;;;5066111;28;20489;-70
2021/03/02 09:52:50;;;;;;;2.70;1.17;;;25.90;57.20;;;;;;5067750;28;20025;-70
2021/03/02 09:55:26;;;;;;;3.88;1.48;;;25.90;57.00;;;;;;5059976;28;20025;-70
2021/03/02 09:58:14;;;;;;;1.58;1.00;;;25.90;56.80;;;;;;5067314;28;20468;-70
2021/03/02 10:00:59;;;;;;;4.93;1.10;;;25.90;56.50;;;;;;5064460;28;20399;-70
2021/03/02 10:03:37;;;;;;;3.67;1.45;;;25.90;56.60;;;;;;5065241;28;20041;-70
2021/03/02 10:06:07;;;;;;;4.20;1.20;;;26.00;56.60;;;;;;5065296;28;20060;-69
2021/03/02 10:08:42;;;;;;;5.03;0.90;;;26.10;56.70;;;;;;5065539;28;20036;-70
2021/03/02 10:11:14;;;;;;;3.35;1.30;;;26.10;56.70;;;;;;5068219;28;20503;-69
2021/03/02 10:13:41;;;;;;;5.68;1.50;;;26.10;56.60;;;;;;5067723;28;20020;-70
2021/03/02 10:16:30;;;;;;;3.30;1.50;;;26.10;56.60;;;;;;5067663;28;20403;-70
2021/03/02 10:19:20;;;;;;;3.67;1.23;;;26.10;56.60;;;;;;5067204;28;20079;-70
2021/03/02 10:21:50;;;;;;;4.32;1.30;;;26.20;56.50;;;;;;5066726;28;20024;-70
2021/03/02 10:24:27;;;;;;;4.35;2.58;;;26.30;56.40;;;;;;5067791;28;20021;-70
2021/03/02 10:27:16;;;;;;;5.40;1.50;;;26.30;56.10;;;;;;5065446;28;20016;-70
2021/03/02 10:29:44;;;;;;;5.97;1.67;;;26.30;56.10;;;;;;5065810;28;20070;-70
2021/03/02 10:32:11;;;;;;;5.43;2.05;;;26.30;56.00;;;;;;5067020;28;20069;-70
2021/03/02 10:34:40;;;;;;;4.97;2.03;;;26.40;56.00;;;;;;5063656;28;20527;-70
2021/03/02 10:37:09;;;;;;;2.20;1.20;;;26.40;56.00;;;;;;5066936;28;20040;-70
2021/03/02 10:39:37;;;;;;;2.72;1.13;;;26.40;55.90;;;;;;5064611;28;20036;-71
2021/03/02 10:42:05;;;;;;;3.72;1.20;;;26.50;55.90;;;;;;5066859;28;20021;-70
2021/03/02 10:44:32;;;;;;;5.68;1.25;;;26.50;55.80;;;;;;5067234;28;20482;-70
2021/03/02 10:46:58;;;;;;;3.08;1.63;;;26.50;55.70;;;;;;5064252;28;20139;-70
2021/03/02 10:49:25;;;;;;;7.20;1.70;;;26.50;56.30;;;;;;5065737;28;20023;-70
2021/03/02 10:51:51;;;;;;;2.60;1.58;;;26.50;55.60;;;;;;5064967;28;20146;-70
2021/03/02 10:54:18;;;;;;;4.20;1.63;;;26.60;55.50;;;;;;5067030;28;20032;-70
2021/03/02 10:56:44;;;;;;;4.65;2.15;;;26.60;55.40;;;;;;5067192;28;20162;-70
2021/03/02 10:59:11;;;;;;;3.42;1.48;;;26.70;55.30;;;;;;5063412;28;20040;-70
2021/03/02 11:01:37;;;;;;;3.83;2.38;;;26.70;55.10;;;;;;5066730;28;20086;-70
2021/03/02 11:04:04;;;;;;;2.38;1.20;;;26.70;55.10;;;;;;5064852;28;20020;-70
2021/03/02 11:06:31;;;;;;;3.08;1.58;;;26.70;55.10;;;;;;5068095;28;20016;-70
2021/03/02 11:08:59;;;;;;;4.03;1.35;;;26.80;55.20;;;;;;5065318;28;20032;-71
2021/03/02 11:11:26;;;;;;;2.67;1.20;;;26.80;55.20;;;;;;5065106;28;20021;-70
2021/03/02 11:13:53;;;;;;;2.17;1.40;;;26.80;55.20;;;;;;5063683;28;20476;-71
2021/03/02 11:16:20;;;;;;;4.68;1.70;;;26.80;55.10;;;;;;5066002;28;20016;-70
2021/03/02 11:18:48;;;;;;;2.60;1.50;;;26.90;55.00;;;;;;5065566;28;20048;-70
2021/03/02 11:21:15;;;;;;;5.80;1.90;;;26.90;54.90;;;;;;5064023;28;20056;-71
2021/03/02 11:23:42;;;;;;;4.78;1.65;;;26.90;54.90;;;;;;5050166;28;20016;-71
2021/03/02 11:26:14;;;;;;;4.68;1.65;;;27.00;54.90;;;;;;5065055;28;20028;-70
2021/03/02 11:28:45;;;;;;;5.93;1.67;;;27.00;54.80;;;;;;5040013;28;20040;-71
2021/03/02 11:31:12;;;;;;;6.47;1.40;;;27.00;54.90;;;;;;5066536;28;20036;-71
2021/03/02 11:33:41;;;;;;;9.77;2.17;;;27.00;54.60;;;;;;5050409;28;20031;-71
2021/03/02 11:36:12;;;;;;;4.53;1.60;;;27.10;54.60;;;;;;5065292;28;20119;-71
2021/03/02 11:38:39;;;;;;;3.88;1.65;;;27.10;54.40;;;;;;5068547;28;20017;-71
2021/03/02 11:41:05;;;;;;;4.65;1.67;;;27.20;54.40;;;;;;5053017;28;20021;-70
2021/03/02 11:43:41;;;;;;;6.20;1.42;;;27.20;54.40;;;;;;5067734;28;20021;-71
2021/03/02 11:46:08;;;;;;;5.88;1.73;;;27.30;54.30;;;;;;5068232;28;20024;-71
2021/03/02 11:48:35;;;;;;;5.88;1.55;;;27.30;54.20;;;;;;5050122;28;20024;-70
2021/03/02 11:51:01;;;;;;;2.70;1.33;;;27.30;54.00;;;;;;5067965;28;20086;-70
2021/03/02 11:53:28;;;;;;;8.32;1.92;;;27.30;53.90;;;;;;5070175;28;20108;-71
2021/03/02 11:55:56;;;;;;;4.18;1.95;;;27.30;53.90;;;;;;5069060;28;20198;-71
2021/03/02 11:58:23;;;;;;;5.70;1.70;;;27.40;53.90;;;;;;5069734;28;20119;-71
2021/03/02 12:00:52;;;;;;;5.57;1.40;;;27.40;53.80;;;;;;5051317;28;20403;-71
2021/03/02 12:03:19;;;;;;;5.47;1.75;;;27.40;53.70;;;;;;5068792;28;20020;-71
2021/03/02 12:05:46;;;;;;;3.28;2.20;;;27.40;53.70;;;;;;5070127;28;20025;-71
2021/03/02 12:08:13;;;;;;;5.75;1.50;;;27.50;53.70;;;;;;5069962;28;20027;-71
2021/03/02 12:10:40;;;;;;;4.88;1.90;;;27.50;53.70;;;;;;5047920;28;20017;-70
2021/03/02 12:13:07;;;;;;;5.28;2.10;;;27.50;53.70;;;;;;5070833;28;20059;-71
2021/03/02 12:15:34;;;;;;;2.50;1.73;;;27.50;53.80;;;;;;5068990;28;20031;-71
2021/03/02 12:18:00;;;;;;;3.92;1.63;;;27.50;53.80;;;;;;5066039;28;20011;-70
2021/03/02 12:20:27;;;;;;;4.97;2.53;;;27.50;53.80;;;;;;5068822;28;20391;-71
2021/03/02 12:22:53;;;;;;;6.95;2.22;;;27.50;53.70;;;;;;5068150;28;20023;-71
2021/03/02 12:25:20;;;;;;;8.32;3.05;;;27.50;53.70;;;;;;5070556;28;20111;-71
2021/03/02 12:27:47;;;;;;;9.70;2.63;;;27.60;53.80;;;;;;5067205;28;20028;-71
2021/03/02 12:30:14;;;;;;;7.05;2.65;;;27.60;53.70;;;;;;5068133;28;20101;-71
2021/03/02 12:32:40;;;;;;;6.18;3.40;;;27.60;53.70;;;;;;5069382;28;20107;-70
2021/03/02 12:35:08;;;;;;;8.48;2.88;;;27.70;53.80;;;;;;5068438;28;20027;-70
2021/03/02 12:37:35;;;;;;;8.25;2.80;;;27.70;53.70;;;;;;5067843;28;20395;-71
2021/03/02 12:40:03;;;;;;;9.00;2.90;;;27.70;53.60;;;;;;5049506;28;20045;-71
2021/03/02 12:42:30;;;;;;;11.57;2.90;;;27.70;53.60;;;;;;5069379;28;20135;-70
2021/03/02 12:44:56;;;;;;;9.80;3.53;;;27.80;53.60;;;;;;5068244;28;20020;-70
2021/03/02 12:47:23;;;;;;;8.23;2.80;;;27.80;53.50;;;;;;5067267;28;20052;-71
2021/03/02 12:49:49;;;;;;;7.68;2.40;;;27.80;53.50;;;;;;5065426;28;21488;-70
2021/03/02 12:52:16;;;;;;;10.18;3.05;;;27.90;53.40;;;;;;5043294;28;20502;-70
2021/03/02 12:54:42;;;;;;;8.43;2.50;;;27.80;53.30;;;;;;5068623;28;20066;-70
2021/03/02 12:57:09;;;;;;;5.28;2.53;;;27.80;53.30;;;;;;5068375;28;20020;-70
2021/03/02 12:59:36;;;;;;;8.63;2.72;;;27.80;53.20;;;;;;5069853;28;20037;-70
2021/03/02 13:02:04;;;;;;;6.38;2.50;;;27.90;53.20;;;;;;5049480;28;20020;-71